sensor_id;sensor_type;location;lat;lon;timestamp;P1;durP1;ratioP1;P2;durP2;ratioP2
41829;SDS011;38614;43.472;23.936;2022-10-16T00:02:40;8.05;;;5.63;;
41829;SDS011;38614;43.472;23.936;2022-10-16T00:05:28;12.55;;;6.47;;
41829;SDS011;38614;43.472;23.936;2022-10-16T00:08:16;11.02;;;5.60;;
41829;SDS011;38614;43.472;23.936;2022-10-16T00:11:05;6.53;;;4.82;;
41829;SDS011;38614;43.472;23.936;2022-10-16T00:14:12;7.55;;;5.20;;
41829;SDS011;38614;43.472;23.936;2022-10-16T00:17:01;9.70;;;3.95;;
41829;SDS011;38614;43.472;23.936;2022-10-16T00:19:49;8.68;;;4.55;;
41829;SDS011;38614;43.472;23.936;2022-10-16T00:22:37;10.02;;;4.85;;
41829;SDS011;38614;43.472;23.936;2022-10-16T00:25:24;7.45;;;5.50;;
41829;SDS011;38614;43.472;23.936;2022-10-16T00:28:12;12.60;;;6.22;;
41829;SDS011;38614;43.472;23.936;2022-10-16T00:31:02;11.88;;;4.43;;
41829;SDS011;38614;43.472;23.936;2022-10-16T00:33:52;7.35;;;4.93;;
41829;SDS011;38614;43.472;23.936;2022-10-16T00:36:40;12.10;;;6.00;;
41829;SDS011;38614;43.472;23.936;2022-10-16T00:39:27;13.93;;;6.25;;
41829;SDS011;38614;43.472;23.936;2022-10-16T00:42:16;17.02;;;5.35;;
41829;SDS011;38614;43.472;23.936;2022-10-16T00:45:05;15.95;;;5.57;;
41829;SDS011;38614;43.472;23.936;2022-10-16T00:47:54;25.73;;;9.10;;
41829;SDS011;38614;43.472;23.936;2022-10-16T00:50:43;30.23;;;11.82;;
41829;SDS011;38614;43.472;23.936;2022-10-16T00:53:31;21.67;;;8.35;;
41829;SDS011;38614;43.472;23.936;2022-10-16T00:56:19;18.42;;;7.57;;
41829;SDS011;38614;43.472;23.936;2022-10-16T00:59:09;14.23;;;7.22;;
41829;SDS011;38614;43.472;23.936;2022-10-16T01:02:03;23.20;;;6.25;;
41829;SDS011;38614;43.472;23.936;2022-10-16T01:04:52;12.45;;;6.43;;
41829;SDS011;38614;43.472;23.936;2022-10-16T01:11:08;12.75;;;7.38;;
41829;SDS011;38614;43.472;23.936;2022-10-16T01:14:16;18.30;;;7.50;;
41829;SDS011;38614;43.472;23.936;2022-10-16T01:29:29;17.00;;;7.55;;
41829;SDS011;38614;43.472;23.936;2022-10-16T01:32:41;17.02;;;7.63;;
41829;SDS011;38614;43.472;23.936;2022-10-16T01:35:30;21.30;;;6.43;;
41829;SDS011;38614;43.472;23.936;2022-10-16T01:38:29;14.32;;;5.35;;
41829;SDS011;38614;43.472;23.936;2022-10-16T01:41:27;26.80;;;6.47;;
41829;SDS011;38614;43.472;23.936;2022-10-16T01:44:21;11.60;;;6.20;;
41829;SDS011;38614;43.472;23.936;2022-10-16T01:47:13;13.60;;;5.97;;
41829;SDS011;38614;43.472;23.936;2022-10-16T01:50:04;22.92;;;7.07;;
41829;SDS011;38614;43.472;23.936;2022-10-16T01:52:53;17.70;;;7.90;;
41829;SDS011;38614;43.472;23.936;2022-10-16T01:55:44;22.42;;;8.23;;
41829;SDS011;38614;43.472;23.936;2022-10-16T01:58:36;23.23;;;8.57;;
41829;SDS011;38614;43.472;23.936;2022-10-16T02:01:31;18.15;;;6.35;;
41829;SDS011;38614;43.472;23.936;2022-10-16T02:04:24;16.73;;;6.70;;
41829;SDS011;38614;43.472;23.936;2022-10-16T02:07:14;16.35;;;5.10;;
41829;SDS011;38614;43.472;23.936;2022-10-16T02:10:03;8.77;;;4.32;;
41829;SDS011;38614;43.472;23.936;2022-10-16T02:12:56;13.98;;;5.57;;
41829;SDS011;38614;43.472;23.936;2022-10-16T02:15:48;10.82;;;5.25;;
41829;SDS011;38614;43.472;23.936;2022-10-16T02:18:40;9.35;;;4.30;;
41829;SDS011;38614;43.472;23.936;2022-10-16T02:21:33;12.75;;;4.32;;
41829;SDS011;38614;43.472;23.936;2022-10-16T02:27:11;11.45;;;3.50;;
41829;SDS011;38614;43.472;23.936;2022-10-16T02:30:21;13.18;;;3.25;;
41829;SDS011;38614;43.472;23.936;2022-10-16T02:33:11;9.98;;;3.38;;
41829;SDS011;38614;43.472;23.936;2022-10-16T02:36:02;10.15;;;5.00;;
41829;SDS011;38614;43.472;23.936;2022-10-16T02:38:50;6.28;;;3.63;;
41829;SDS011;38614;43.472;23.936;2022-10-16T02:41:39;8.10;;;3.42;;
41829;SDS011;38614;43.472;23.936;2022-10-16T02:44:27;4.05;;;3.03;;
41829;SDS011;38614;43.472;23.936;2022-10-16T02:47:14;6.25;;;3.72;;
41829;SDS011;38614;43.472;23.936;2022-10-16T02:50:03;14.20;;;4.13;;
41829;SDS011;38614;43.472;23.936;2022-10-16T02:52:51;8.27;;;4.38;;
41829;SDS011;38614;43.472;23.936;2022-10-16T02:55:39;11.95;;;4.28;;
41829;SDS011;38614;43.472;23.936;2022-10-16T02:58:27;6.38;;;3.40;;
41829;SDS011;38614;43.472;23.936;2022-10-16T03:01:15;7.78;;;3.72;;
41829;SDS011;38614;43.472;23.936;2022-10-16T03:04:04;11.65;;;4.18;;
41829;SDS011;38614;43.472;23.936;2022-10-16T03:06:51;9.75;;;3.13;;
41829;SDS011;38614;43.472;23.936;2022-10-16T03:09:39;7.47;;;3.78;;
41829;SDS011;38614;43.472;23.936;2022-10-16T03:12:27;5.53;;;3.13;;
41829;SDS011;38614;43.472;23.936;2022-10-16T03:15:16;13.48;;;4.18;;
41829;SDS011;38614;43.472;23.936;2022-10-16T03:18:04;15.68;;;4.72;;
41829;SDS011;38614;43.472;23.936;2022-10-16T03:20:51;9.82;;;4.43;;
41829;SDS011;38614;43.472;23.936;2022-10-16T03:23:39;6.47;;;4.07;;
41829;SDS011;38614;43.472;23.936;2022-10-16T03:26:29;3.80;;;2.63;;
41829;SDS011;38614;43.472;23.936;2022-10-16T03:29:17;7.07;;;4.00;;
41829;SDS011;38614;43.472;23.936;2022-10-16T03:32:05;8.77;;;4.82;;
41829;SDS011;38614;43.472;23.936;2022-10-16T03:34:53;11.52;;;4.47;;
41829;SDS011;38614;43.472;23.936;2022-10-16T03:37:41;10.40;;;4.50;;
41829;SDS011;38614;43.472;23.936;2022-10-16T03:40:29;6.20;;;4.45;;
41829;SDS011;38614;43.472;23.936;2022-10-16T03:43:19;10.38;;;4.00;;
41829;SDS011;38614;43.472;23.936;2022-10-16T03:46:07;10.48;;;4.07;;
41829;SDS011;38614;43.472;23.936;2022-10-16T03:48:57;12.77;;;4.75;;
41829;SDS011;38614;43.472;23.936;2022-10-16T03:51:45;7.88;;;4.55;;
41829;SDS011;38614;43.472;23.936;2022-10-16T03:54:33;4.40;;;3.25;;
41829;SDS011;38614;43.472;23.936;2022-10-16T03:57:20;9.57;;;4.32;;
41829;SDS011;38614;43.472;23.936;2022-10-16T04:00:09;11.82;;;4.50;;
41829;SDS011;38614;43.472;23.936;2022-10-16T04:02:57;15.73;;;5.25;;
41829;SDS011;38614;43.472;23.936;2022-10-16T04:05:45;8.27;;;4.88;;
41829;SDS011;38614;43.472;23.936;2022-10-16T04:08:33;8.63;;;4.90;;
41829;SDS011;38614;43.472;23.936;2022-10-16T04:11:23;11.02;;;4.57;;
41829;SDS011;38614;43.472;23.936;2022-10-16T04:14:11;13.02;;;5.97;;
41829;SDS011;38614;43.472;23.936;2022-10-16T04:16:59;14.23;;;5.68;;
41829;SDS011;38614;43.472;23.936;2022-10-16T04:19:47;11.65;;;4.95;;
41829;SDS011;38614;43.472;23.936;2022-10-16T04:22:34;12.85;;;5.15;;
41829;SDS011;38614;43.472;23.936;2022-10-16T04:25:25;16.05;;;4.47;;
41829;SDS011;38614;43.472;23.936;2022-10-16T04:28:14;13.02;;;5.68;;
41829;SDS011;38614;43.472;23.936;2022-10-16T04:31:05;11.35;;;6.72;;
41829;SDS011;38614;43.472;23.936;2022-10-16T04:33:53;22.43;;;14.57;;
41829;SDS011;38614;43.472;23.936;2022-10-16T04:36:41;23.92;;;13.13;;
41829;SDS011;38614;43.472;23.936;2022-10-16T04:39:29;17.80;;;9.60;;
41829;SDS011;38614;43.472;23.936;2022-10-16T04:42:17;11.05;;;7.18;;
41829;SDS011;38614;43.472;23.936;2022-10-16T04:45:07;15.20;;;6.72;;
41829;SDS011;38614;43.472;23.936;2022-10-16T04:47:58;14.25;;;6.97;;
41829;SDS011;38614;43.472;23.936;2022-10-16T04:50:49;7.70;;;5.05;;
41829;SDS011;38614;43.472;23.936;2022-10-16T04:53:40;9.18;;;5.03;;
41829;SDS011;38614;43.472;23.936;2022-10-16T04:56:28;10.18;;;4.80;;
41829;SDS011;38614;43.472;23.936;2022-10-16T04:59:19;12.50;;;6.40;;
41829;SDS011;38614;43.472;23.936;2022-10-16T05:02:08;12.13;;;7.05;;
41829;SDS011;38614;43.472;23.936;2022-10-16T05:04:56;18.83;;;5.68;;
41829;SDS011;38614;43.472;23.936;2022-10-16T05:07:43;11.73;;;6.20;;
41829;SDS011;38614;43.472;23.936;2022-10-16T05:10:31;13.25;;;4.55;;
41829;SDS011;38614;43.472;23.936;2022-10-16T05:13:19;12.07;;;5.07;;
41829;SDS011;38614;43.472;23.936;2022-10-16T05:16:10;12.32;;;3.28;;
41829;SDS011;38614;43.472;23.936;2022-10-16T05:18:58;17.67;;;3.30;;
41829;SDS011;38614;43.472;23.936;2022-10-16T05:22:13;15.00;;;5.85;;
41829;SDS011;38614;43.472;23.936;2022-10-16T05:25:00;10.18;;;4.50;;
41829;SDS011;38614;43.472;23.936;2022-10-16T05:27:49;9.38;;;4.38;;
41829;SDS011;38614;43.472;23.936;2022-10-16T05:30:37;20.48;;;5.35;;
41829;SDS011;38614;43.472;23.936;2022-10-16T05:33:25;16.17;;;3.75;;
41829;SDS011;38614;43.472;23.936;2022-10-16T05:36:13;14.10;;;3.88;;
41829;SDS011;38614;43.472;23.936;2022-10-16T05:39:01;4.60;;;3.10;;
41829;SDS011;38614;43.472;23.936;2022-10-16T05:41:50;4.53;;;4.10;;
41829;SDS011;38614;43.472;23.936;2022-10-16T05:44:40;9.65;;;3.17;;
41829;SDS011;38614;43.472;23.936;2022-10-16T05:47:29;4.55;;;3.28;;
41829;SDS011;38614;43.472;23.936;2022-10-16T05:50:16;4.97;;;3.08;;
41829;SDS011;38614;43.472;23.936;2022-10-16T05:53:04;3.05;;;2.58;;
41829;SDS011;38614;43.472;23.936;2022-10-16T05:55:52;8.57;;;3.10;;
41829;SDS011;38614;43.472;23.936;2022-10-16T05:58:40;8.68;;;3.13;;
41829;SDS011;38614;43.472;23.936;2022-10-16T06:01:29;7.60;;;3.97;;
41829;SDS011;38614;43.472;23.936;2022-10-16T06:04:18;15.15;;;4.32;;
41829;SDS011;38614;43.472;23.936;2022-10-16T06:07:05;15.30;;;4.43;;
41829;SDS011;38614;43.472;23.936;2022-10-16T06:09:53;14.05;;;5.90;;
41829;SDS011;38614;43.472;23.936;2022-10-16T06:12:41;15.73;;;3.92;;
41829;SDS011;38614;43.472;23.936;2022-10-16T06:15:29;21.58;;;4.05;;
41829;SDS011;38614;43.472;23.936;2022-10-16T06:18:17;5.85;;;3.30;;
41829;SDS011;38614;43.472;23.936;2022-10-16T06:21:08;11.55;;;3.22;;
41829;SDS011;38614;43.472;23.936;2022-10-16T06:23:58;8.55;;;3.50;;
41829;SDS011;38614;43.472;23.936;2022-10-16T06:26:49;5.28;;;3.40;;
41829;SDS011;38614;43.472;23.936;2022-10-16T06:29:37;6.95;;;4.38;;
41829;SDS011;38614;43.472;23.936;2022-10-16T06:32:24;8.25;;;3.30;;
41829;SDS011;38614;43.472;23.936;2022-10-16T06:35:12;5.63;;;3.50;;
41829;SDS011;38614;43.472;23.936;2022-10-16T06:38:00;7.63;;;3.60;;
41829;SDS011;38614;43.472;23.936;2022-10-16T06:40:48;11.35;;;3.03;;
41829;SDS011;38614;43.472;23.936;2022-10-16T06:43:35;8.50;;;3.38;;
41829;SDS011;38614;43.472;23.936;2022-10-16T06:46:24;4.53;;;3.55;;
41829;SDS011;38614;43.472;23.936;2022-10-16T06:49:13;4.45;;;2.78;;
41829;SDS011;38614;43.472;23.936;2022-10-16T06:52:08;6.47;;;3.05;;
41829;SDS011;38614;43.472;23.936;2022-10-16T06:54:55;8.00;;;3.63;;
41829;SDS011;38614;43.472;23.936;2022-10-16T06:57:43;14.27;;;3.38;;
41829;SDS011;38614;43.472;23.936;2022-10-16T07:00:31;4.28;;;2.63;;
41829;SDS011;38614;43.472;23.936;2022-10-16T07:03:19;9.70;;;3.33;;
41829;SDS011;38614;43.472;23.936;2022-10-16T07:06:07;12.38;;;2.90;;
41829;SDS011;38614;43.472;23.936;2022-10-16T07:08:56;7.20;;;2.65;;
41829;SDS011;38614;43.472;23.936;2022-10-16T07:11:44;7.40;;;2.63;;
41829;SDS011;38614;43.472;23.936;2022-10-16T07:14:31;11.10;;;2.55;;
41829;SDS011;38614;43.472;23.936;2022-10-16T07:17:20;6.95;;;1.80;;
41829;SDS011;38614;43.472;23.936;2022-10-16T07:20:08;10.90;;;2.42;;
41829;SDS011;38614;43.472;23.936;2022-10-16T07:22:56;9.35;;;2.70;;
41829;SDS011;38614;43.472;23.936;2022-10-16T07:25:44;10.77;;;2.65;;
41829;SDS011;38614;43.472;23.936;2022-10-16T07:28:32;2.78;;;2.40;;
41829;SDS011;38614;43.472;23.936;2022-10-16T07:31:20;5.00;;;2.53;;
41829;SDS011;38614;43.472;23.936;2022-10-16T07:34:10;3.08;;;2.05;;
41829;SDS011;38614;43.472;23.936;2022-10-16T07:36:59;4.18;;;2.83;;
41829;SDS011;38614;43.472;23.936;2022-10-16T07:39:47;2.78;;;1.90;;
41829;SDS011;38614;43.472;23.936;2022-10-16T07:42:35;10.55;;;2.05;;
41829;SDS011;38614;43.472;23.936;2022-10-16T07:45:22;7.70;;;2.88;;
41829;SDS011;38614;43.472;23.936;2022-10-16T07:48:10;7.38;;;1.88;;
41829;SDS011;38614;43.472;23.936;2022-10-16T07:51:05;1.58;;;1.48;;
41829;SDS011;38614;43.472;23.936;2022-10-16T07:53:53;3.75;;;1.70;;
41829;SDS011;38614;43.472;23.936;2022-10-16T07:56:41;2.95;;;1.17;;
41829;SDS011;38614;43.472;23.936;2022-10-16T07:59:29;5.38;;;0.82;;
41829;SDS011;38614;43.472;23.936;2022-10-16T08:02:20;2.08;;;1.05;;
41829;SDS011;38614;43.472;23.936;2022-10-16T08:05:08;1.42;;;1.20;;
41829;SDS011;38614;43.472;23.936;2022-10-16T08:07:56;1.63;;;1.00;;
41829;SDS011;38614;43.472;23.936;2022-10-16T08:10:44;2.65;;;0.80;;
41829;SDS011;38614;43.472;23.936;2022-10-16T08:13:32;2.17;;;1.15;;
41829;SDS011;38614;43.472;23.936;2022-10-16T08:16:21;1.08;;;0.98;;
41829;SDS011;38614;43.472;23.936;2022-10-16T08:19:09;8.35;;;1.70;;
41829;SDS011;38614;43.472;23.936;2022-10-16T08:21:57;4.43;;;1.40;;
41829;SDS011;38614;43.472;23.936;2022-10-16T08:24:44;5.45;;;0.77;;
41829;SDS011;38614;43.472;23.936;2022-10-16T08:27:32;2.33;;;1.17;;
41829;SDS011;38614;43.472;23.936;2022-10-16T08:30:21;0.77;;;0.75;;
41829;SDS011;38614;43.472;23.936;2022-10-16T08:33:10;6.28;;;1.42;;
41829;SDS011;38614;43.472;23.936;2022-10-16T08:35:58;4.93;;;1.17;;
41829;SDS011;38614;43.472;23.936;2022-10-16T08:38:49;5.30;;;2.10;;
41829;SDS011;38614;43.472;23.936;2022-10-16T08:50:44;4.53;;;1.20;;
41829;SDS011;38614;43.472;23.936;2022-10-16T08:53:55;2.67;;;1.13;;
41829;SDS011;38614;43.472;23.936;2022-10-16T08:56:44;4.70;;;1.85;;
41829;SDS011;38614;43.472;23.936;2022-10-16T08:59:32;3.78;;;1.40;;
41829;SDS011;38614;43.472;23.936;2022-10-16T09:02:24;6.28;;;2.15;;
41829;SDS011;38614;43.472;23.936;2022-10-16T09:20:34;2.78;;;0.65;;
41829;SDS011;38614;43.472;23.936;2022-10-16T09:23:43;2.85;;;0.85;;
41829;SDS011;38614;43.472;23.936;2022-10-16T09:26:31;3.35;;;0.70;;
41829;SDS011;38614;43.472;23.936;2022-10-16T09:29:20;4.10;;;0.95;;
41829;SDS011;38614;43.472;23.936;2022-10-16T09:32:17;4.32;;;0.73;;
41829;SDS011;38614;43.472;23.936;2022-10-16T09:35:15;3.42;;;1.10;;
41829;SDS011;38614;43.472;23.936;2022-10-16T09:38:06;1.15;;;0.82;;
41829;SDS011;38614;43.472;23.936;2022-10-16T09:40:59;0.85;;;0.43;;
41829;SDS011;38614;43.472;23.936;2022-10-16T09:46:44;1.35;;;0.55;;
41829;SDS011;38614;43.472;23.936;2022-10-16T09:49:32;2.17;;;1.08;;
41829;SDS011;38614;43.472;23.936;2022-10-16T09:52:20;4.30;;;0.90;;
41829;SDS011;38614;43.472;23.936;2022-10-16T09:55:16;5.85;;;0.88;;
41829;SDS011;38614;43.472;23.936;2022-10-16T09:58:11;2.65;;;0.70;;
41829;SDS011;38614;43.472;23.936;2022-10-16T10:01:03;2.95;;;1.20;;
41829;SDS011;38614;43.472;23.936;2022-10-16T10:03:58;2.53;;;0.82;;
41829;SDS011;38614;43.472;23.936;2022-10-16T10:09:38;3.45;;;0.80;;
41829;SDS011;38614;43.472;23.936;2022-10-16T10:12:27;2.13;;;0.73;;
41829;SDS011;38614;43.472;23.936;2022-10-16T10:15:18;3.67;;;0.90;;
41829;SDS011;38614;43.472;23.936;2022-10-16T10:18:16;7.55;;;0.65;;
41829;SDS011;38614;43.472;23.936;2022-10-16T10:21:12;1.90;;;0.98;;
41829;SDS011;38614;43.472;23.936;2022-10-16T10:24:01;2.72;;;0.60;;
41829;SDS011;38614;43.472;23.936;2022-10-16T10:27:07;1.80;;;0.55;;
41829;SDS011;38614;43.472;23.936;2022-10-16T10:39:48;1.10;;;0.70;;
41829;SDS011;38614;43.472;23.936;2022-10-16T10:42:48;1.67;;;0.90;;
41829;SDS011;38614;43.472;23.936;2022-10-16T10:45:46;2.22;;;1.83;;
41829;SDS011;38614;43.472;23.936;2022-10-16T10:51:34;2.15;;;0.80;;
41829;SDS011;38614;43.472;23.936;2022-10-16T11:00:48;5.10;;;0.73;;
41829;SDS011;38614;43.472;23.936;2022-10-16T11:09:52;1.25;;;0.80;;
41829;SDS011;38614;43.472;23.936;2022-10-16T11:12:46;4.70;;;0.88;;
41829;SDS011;38614;43.472;23.936;2022-10-16T11:15:38;1.02;;;0.60;;
41829;SDS011;38614;43.472;23.936;2022-10-16T11:21:56;10.27;;;4.20;;
41829;SDS011;38614;43.472;23.936;2022-10-16T11:24:53;3.92;;;0.98;;
41829;SDS011;38614;43.472;23.936;2022-10-16T11:31:08;2.00;;;1.20;;
41829;SDS011;38614;43.472;23.936;2022-10-16T11:37:26;3.03;;;1.05;;
41829;SDS011;38614;43.472;23.936;2022-10-16T11:40:30;6.13;;;1.67;;
41829;SDS011;38614;43.472;23.936;2022-10-16T11:43:22;3.08;;;1.05;;
41829;SDS011;38614;43.472;23.936;2022-10-16T11:46:17;4.55;;;1.30;;
41829;SDS011;38614;43.472;23.936;2022-10-16T11:49:13;2.28;;;1.40;;
41829;SDS011;38614;43.472;23.936;2022-10-16T11:52:19;1.83;;;1.02;;
41829;SDS011;38614;43.472;23.936;2022-10-16T11:55:27;5.00;;;1.67;;
41829;SDS011;38614;43.472;23.936;2022-10-16T12:01:49;5.25;;;1.65;;
41829;SDS011;38614;43.472;23.936;2022-10-16T12:04:46;2.72;;;1.00;;
41829;SDS011;38614;43.472;23.936;2022-10-16T12:08:17;3.20;;;1.70;;
41829;SDS011;38614;43.472;23.936;2022-10-16T12:17:38;6.28;;;1.52;;
41829;SDS011;38614;43.472;23.936;2022-10-16T12:20:32;8.88;;;2.42;;
41829;SDS011;38614;43.472;23.936;2022-10-16T12:23:23;10.50;;;2.10;;
41829;SDS011;38614;43.472;23.936;2022-10-16T12:26:11;1.38;;;1.00;;
41829;SDS011;38614;43.472;23.936;2022-10-16T12:32:27;6.93;;;1.73;;
41829;SDS011;38614;43.472;23.936;2022-10-16T12:35:33;6.45;;;2.13;;
41829;SDS011;38614;43.472;23.936;2022-10-16T12:38:32;7.38;;;1.70;;
41829;SDS011;38614;43.472;23.936;2022-10-16T12:41:34;6.85;;;1.90;;
41829;SDS011;38614;43.472;23.936;2022-10-16T12:44:27;1.95;;;1.08;;
41829;SDS011;38614;43.472;23.936;2022-10-16T12:47:23;3.60;;;1.58;;
41829;SDS011;38614;43.472;23.936;2022-10-16T12:50:28;4.53;;;2.13;;
41829;SDS011;38614;43.472;23.936;2022-10-16T12:53:20;5.13;;;1.15;;
41829;SDS011;38614;43.472;23.936;2022-10-16T13:08:46;4.63;;;1.63;;
41829;SDS011;38614;43.472;23.936;2022-10-16T13:18:19;3.08;;;1.40;;
41829;SDS011;38614;43.472;23.936;2022-10-16T13:24:33;11.27;;;1.15;;
41829;SDS011;38614;43.472;23.936;2022-10-16T13:30:52;8.05;;;2.30;;
41829;SDS011;38614;43.472;23.936;2022-10-16T13:33:42;3.03;;;1.83;;
41829;SDS011;38614;43.472;23.936;2022-10-16T13:36:42;5.93;;;2.10;;
41829;SDS011;38614;43.472;23.936;2022-10-16T13:39:32;3.00;;;1.38;;
41829;SDS011;38614;43.472;23.936;2022-10-16T13:45:17;4.35;;;1.25;;
41829;SDS011;38614;43.472;23.936;2022-10-16T13:48:09;4.72;;;1.90;;
41829;SDS011;38614;43.472;23.936;2022-10-16T13:51:22;4.85;;;1.67;;
41829;SDS011;38614;43.472;23.936;2022-10-16T13:54:09;9.40;;;1.23;;
41829;SDS011;38614;43.472;23.936;2022-10-16T13:57:04;2.88;;;1.10;;
41829;SDS011;38614;43.472;23.936;2022-10-16T14:03:13;4.80;;;2.35;;
41829;SDS011;38614;43.472;23.936;2022-10-16T14:06:03;6.00;;;2.35;;
41829;SDS011;38614;43.472;23.936;2022-10-16T14:12:17;3.20;;;1.10;;
41829;SDS011;38614;43.472;23.936;2022-10-16T14:15:15;3.83;;;1.15;;
41829;SDS011;38614;43.472;23.936;2022-10-16T14:18:04;5.43;;;2.28;;
41829;SDS011;38614;43.472;23.936;2022-10-16T14:20:52;3.22;;;1.83;;
41829;SDS011;38614;43.472;23.936;2022-10-16T14:23:42;4.47;;;1.85;;
41829;SDS011;38614;43.472;23.936;2022-10-16T14:26:31;3.55;;;1.33;;
41829;SDS011;38614;43.472;23.936;2022-10-16T14:29:32;3.03;;;1.58;;
41829;SDS011;38614;43.472;23.936;2022-10-16T14:32:23;1.63;;;1.35;;
41829;SDS011;38614;43.472;23.936;2022-10-16T14:35:31;3.20;;;1.58;;
41829;SDS011;38614;43.472;23.936;2022-10-16T14:38:21;5.20;;;1.35;;
41829;SDS011;38614;43.472;23.936;2022-10-16T14:41:09;4.15;;;1.38;;
41829;SDS011;38614;43.472;23.936;2022-10-16T14:44:03;3.70;;;2.15;;
41829;SDS011;38614;43.472;23.936;2022-10-16T14:46:51;3.90;;;2.63;;
41829;SDS011;38614;43.472;23.936;2022-10-16T14:49:40;3.72;;;2.00;;
41829;SDS011;38614;43.472;23.936;2022-10-16T14:52:29;6.75;;;2.58;;
41829;SDS011;38614;43.472;23.936;2022-10-16T14:55:17;8.75;;;3.08;;
41829;SDS011;38614;43.472;23.936;2022-10-16T14:58:05;9.77;;;2.70;;
41829;SDS011;38614;43.472;23.936;2022-10-16T15:00:57;3.95;;;2.22;;
41829;SDS011;38614;43.472;23.936;2022-10-16T15:03:48;3.70;;;2.30;;
41829;SDS011;38614;43.472;23.936;2022-10-16T15:06:36;8.77;;;3.22;;
41829;SDS011;38614;43.472;23.936;2022-10-16T15:09:23;10.57;;;3.75;;
41829;SDS011;38614;43.472;23.936;2022-10-16T15:12:14;10.18;;;3.35;;
41829;SDS011;38614;43.472;23.936;2022-10-16T15:15:23;10.55;;;3.25;;
41829;SDS011;38614;43.472;23.936;2022-10-16T15:18:10;4.85;;;3.10;;
41829;SDS011;38614;43.472;23.936;2022-10-16T15:20:58;12.52;;;3.55;;
41829;SDS011;38614;43.472;23.936;2022-10-16T15:23:46;12.07;;;3.15;;
41829;SDS011;38614;43.472;23.936;2022-10-16T15:26:34;3.95;;;2.17;;
41829;SDS011;38614;43.472;23.936;2022-10-16T15:29:22;4.10;;;2.60;;
41829;SDS011;38614;43.472;23.936;2022-10-16T15:32:10;2.97;;;2.15;;
41829;SDS011;38614;43.472;23.936;2022-10-16T15:34:58;6.25;;;2.17;;
41829;SDS011;38614;43.472;23.936;2022-10-16T15:37:46;12.90;;;3.58;;
41829;SDS011;38614;43.472;23.936;2022-10-16T15:40:35;9.23;;;4.35;;
41829;SDS011;38614;43.472;23.936;2022-10-16T15:43:22;10.02;;;4.85;;
41829;SDS011;38614;43.472;23.936;2022-10-16T15:46:14;15.27;;;6.88;;
41829;SDS011;38614;43.472;23.936;2022-10-16T15:49:02;16.75;;;8.23;;
41829;SDS011;38614;43.472;23.936;2022-10-16T15:51:50;8.43;;;4.68;;
41829;SDS011;38614;43.472;23.936;2022-10-16T15:54:40;10.13;;;4.07;;
41829;SDS011;38614;43.472;23.936;2022-10-16T15:57:28;7.40;;;3.97;;
41829;SDS011;38614;43.472;23.936;2022-10-16T16:00:17;3.88;;;2.97;;
41829;SDS011;38614;43.472;23.936;2022-10-16T16:03:09;4.80;;;2.25;;
41829;SDS011;38614;43.472;23.936;2022-10-16T16:05:57;8.45;;;3.35;;
41829;SDS011;38614;43.472;23.936;2022-10-16T16:08:45;6.93;;;2.67;;
41829;SDS011;38614;43.472;23.936;2022-10-16T16:11:33;8.85;;;2.47;;
41829;SDS011;38614;43.472;23.936;2022-10-16T16:14:24;3.88;;;2.38;;
41829;SDS011;38614;43.472;23.936;2022-10-16T16:17:16;9.45;;;2.42;;
41829;SDS011;38614;43.472;23.936;2022-10-16T16:20:10;7.05;;;3.08;;
41829;SDS011;38614;43.472;23.936;2022-10-16T16:26:02;9.15;;;2.15;;
41829;SDS011;38614;43.472;23.936;2022-10-16T16:28:52;3.42;;;2.15;;
41829;SDS011;38614;43.472;23.936;2022-10-16T16:31:44;2.15;;;1.95;;
41829;SDS011;38614;43.472;23.936;2022-10-16T16:34:34;5.88;;;2.88;;
41829;SDS011;38614;43.472;23.936;2022-10-16T16:37:22;6.88;;;2.85;;
41829;SDS011;38614;43.472;23.936;2022-10-16T16:40:10;4.97;;;2.92;;
41829;SDS011;38614;43.472;23.936;2022-10-16T16:43:01;8.00;;;3.08;;
41829;SDS011;38614;43.472;23.936;2022-10-16T16:45:52;6.22;;;3.65;;
41829;SDS011;38614;43.472;23.936;2022-10-16T16:48:41;5.13;;;3.08;;
41829;SDS011;38614;43.472;23.936;2022-10-16T16:51:30;7.15;;;3.45;;
41829;SDS011;38614;43.472;23.936;2022-10-16T16:54:21;7.75;;;3.67;;
41829;SDS011;38614;43.472;23.936;2022-10-16T16:57:12;14.30;;;4.25;;
41829;SDS011;38614;43.472;23.936;2022-10-16T17:00:03;7.97;;;4.13;;
41829;SDS011;38614;43.472;23.936;2022-10-16T17:02:54;10.13;;;2.97;;
41829;SDS011;38614;43.472;23.936;2022-10-16T17:05:54;5.85;;;3.28;;
41829;SDS011;38614;43.472;23.936;2022-10-16T17:08:43;6.38;;;3.90;;
41829;SDS011;38614;43.472;23.936;2022-10-16T17:11:31;9.00;;;2.83;;
41829;SDS011;38614;43.472;23.936;2022-10-16T17:14:20;4.53;;;2.72;;
41829;SDS011;38614;43.472;23.936;2022-10-16T17:17:07;7.07;;;3.70;;
41829;SDS011;38614;43.472;23.936;2022-10-16T17:19:55;6.25;;;3.30;;
41829;SDS011;38614;43.472;23.936;2022-10-16T17:22:43;8.35;;;3.53;;
41829;SDS011;38614;43.472;23.936;2022-10-16T17:25:31;7.20;;;3.38;;
41829;SDS011;38614;43.472;23.936;2022-10-16T17:28:20;10.10;;;3.85;;
41829;SDS011;38614;43.472;23.936;2022-10-16T17:31:12;5.20;;;4.03;;
41829;SDS011;38614;43.472;23.936;2022-10-16T17:34:03;7.13;;;3.75;;
41829;SDS011;38614;43.472;23.936;2022-10-16T17:36:52;10.07;;;3.95;;
41829;SDS011;38614;43.472;23.936;2022-10-16T17:39:40;11.10;;;3.88;;
41829;SDS011;38614;43.472;23.936;2022-10-16T17:42:29;8.93;;;3.78;;
41829;SDS011;38614;43.472;23.936;2022-10-16T17:45:17;7.07;;;3.33;;
41829;SDS011;38614;43.472;23.936;2022-10-16T17:48:05;6.72;;;3.67;;
41829;SDS011;38614;43.472;23.936;2022-10-16T17:50:53;6.07;;;3.30;;
41829;SDS011;38614;43.472;23.936;2022-10-16T17:53:41;5.78;;;4.50;;
41829;SDS011;38614;43.472;23.936;2022-10-16T17:56:29;7.10;;;3.47;;
41829;SDS011;38614;43.472;23.936;2022-10-16T17:59:17;7.97;;;4.30;;
41829;SDS011;38614;43.472;23.936;2022-10-16T18:02:09;8.45;;;3.63;;
41829;SDS011;38614;43.472;23.936;2022-10-16T18:04:57;8.20;;;4.25;;
41829;SDS011;38614;43.472;23.936;2022-10-16T18:07:46;7.35;;;3.58;;
41829;SDS011;38614;43.472;23.936;2022-10-16T18:10:34;10.07;;;3.50;;
41829;SDS011;38614;43.472;23.936;2022-10-16T18:13:27;7.35;;;3.35;;
41829;SDS011;38614;43.472;23.936;2022-10-16T18:16:19;7.22;;;3.72;;
41829;SDS011;38614;43.472;23.936;2022-10-16T18:19:10;5.78;;;3.45;;
41829;SDS011;38614;43.472;23.936;2022-10-16T18:21:58;8.40;;;4.47;;
41829;SDS011;38614;43.472;23.936;2022-10-16T18:24:46;9.18;;;4.60;;
41829;SDS011;38614;43.472;23.936;2022-10-16T18:27:34;7.68;;;4.00;;
41829;SDS011;38614;43.472;23.936;2022-10-16T18:30:22;12.02;;;4.50;;
41829;SDS011;38614;43.472;23.936;2022-10-16T18:33:10;8.82;;;3.75;;
41829;SDS011;38614;43.472;23.936;2022-10-16T18:36:08;11.57;;;4.07;;
41829;SDS011;38614;43.472;23.936;2022-10-16T18:38:56;10.90;;;4.32;;
41829;SDS011;38614;43.472;23.936;2022-10-16T18:41:45;6.57;;;3.28;;
41829;SDS011;38614;43.472;23.936;2022-10-16T18:44:33;7.60;;;4.25;;
41829;SDS011;38614;43.472;23.936;2022-10-16T18:47:21;8.05;;;4.22;;
41829;SDS011;38614;43.472;23.936;2022-10-16T18:50:09;8.07;;;4.25;;
41829;SDS011;38614;43.472;23.936;2022-10-16T18:52:58;9.18;;;3.90;;
41829;SDS011;38614;43.472;23.936;2022-10-16T18:55:51;10.05;;;3.90;;
41829;SDS011;38614;43.472;23.936;2022-10-16T18:58:40;12.68;;;3.90;;
41829;SDS011;38614;43.472;23.936;2022-10-16T19:01:30;10.90;;;4.97;;
41829;SDS011;38614;43.472;23.936;2022-10-16T19:04:20;11.23;;;4.20;;
41829;SDS011;38614;43.472;23.936;2022-10-16T19:07:09;16.10;;;4.47;;